sensor_id;sensor_type;location;lat;lon;timestamp;pressure;altitude;pressure_sealevel;temperature;humidity
70323;BME280;57735;56.264;43.898;2023-05-10T00:00:22;101747.09;;;3.58;72.73
70323;BME280;57735;56.264;43.898;2023-05-10T00:03:01;101747.00;;;3.59;72.75
70323;BME280;57735;56.264;43.898;2023-05-10T00:05:32;101748.72;;;3.60;73.20
70323;BME280;57735;56.264;43.898;2023-05-10T00:08:03;101740.66;;;3.63;73.28
70323;BME280;57735;56.264;43.898;2023-05-10T00:10:33;101745.88;;;3.65;72.91
70323;BME280;57735;56.264;43.898;2023-05-10T00:13:04;101742.22;;;3.67;72.79
70323;BME280;57735;56.264;43.898;2023-05-10T00:15:35;101743.94;;;3.68;72.87
70323;BME280;57735;56.264;43.898;2023-05-10T00:18:06;101750.13;;;3.67;73.09
70323;BME280;57735;56.264;43.898;2023-05-10T00:20:36;101738.66;;;3.68;73.59
70323;BME280;57735;56.264;43.898;2023-05-10T00:23:07;101741.91;;;3.73;73.21
70323;BME280;57735;56.264;43.898;2023-05-10T00:25:38;101740.75;;;3.79;73.03
70323;BME280;57735;56.264;43.898;2023-05-10T00:28:09;101732.75;;;3.80;72.82
70323;BME280;57735;56.264;43.898;2023-05-10T00:30:39;101736.97;;;3.84;72.70
70323;BME280;57735;56.264;43.898;2023-05-10T00:33:10;101735.06;;;3.86;72.54
70323;BME280;57735;56.264;43.898;2023-05-10T00:35:43;101747.34;;;3.88;72.55
70323;BME280;57735;56.264;43.898;2023-05-10T00:38:14;101745.81;;;3.83;72.88
70323;BME280;57735;56.264;43.898;2023-05-10T00:40:47;101743.25;;;3.82;73.00
70323;BME280;57735;56.264;43.898;2023-05-10T00:43:18;101747.59;;;3.83;72.83
70323;BME280;57735;56.264;43.898;2023-05-10T00:45:49;101745.81;;;3.83;72.75
70323;BME280;57735;56.264;43.898;2023-05-10T00:48:20;101752.00;;;3.82;72.90
70323;BME280;57735;56.264;43.898;2023-05-10T00:50:51;101752.00;;;3.82;72.87
70323;BME280;57735;56.264;43.898;2023-05-10T00:53:25;101746.41;;;3.89;72.77
70323;BME280;57735;56.264;43.898;2023-05-10T00:55:56;101731.84;;;3.99;72.44
70323;BME280;57735;56.264;43.898;2023-05-10T00:58:28;101737.56;;;4.07;72.40
70323;BME280;57735;56.264;43.898;2023-05-10T01:00:59;101737.47;;;4.08;72.47
70323;BME280;57735;56.264;43.898;2023-05-10T01:03:31;101740.91;;;4.10;72.49
70323;BME280;57735;56.264;43.898;2023-05-10T01:06:02;101738.25;;;4.10;72.64
70323;BME280;57735;56.264;43.898;2023-05-10T01:08:33;101739.97;;;4.11;72.54
70323;BME280;57735;56.264;43.898;2023-05-10T01:11:04;101736.41;;;4.12;72.68
70323;BME280;57735;56.264;43.898;2023-05-10T01:13:39;101736.25;;;4.15;72.32
70323;BME280;57735;56.264;43.898;2023-05-10T01:16:11;101738.72;;;4.18;72.01
70323;BME280;57735;56.264;43.898;2023-05-10T01:18:43;101743.91;;;4.20;71.86
70323;BME280;57735;56.264;43.898;2023-05-10T01:21:22;101738.31;;;4.26;71.95
70323;BME280;57735;56.264;43.898;2023-05-10T01:24:23;101737.66;;;4.38;71.56
70323;BME280;57735;56.264;43.898;2023-05-10T01:30:26;101747.59;;;4.50;71.01
70323;BME280;57735;56.264;43.898;2023-05-10T01:33:32;101738.41;;;4.57;70.96
70323;BME280;57735;56.264;43.898;2023-05-10T01:36:08;101739.94;;;4.62;70.68
70323;BME280;57735;56.264;43.898;2023-05-10T01:38:56;101745.78;;;4.68;70.25
70323;BME280;57735;56.264;43.898;2023-05-10T01:41:51;101746.28;;;4.75;70.08
70323;BME280;57735;56.264;43.898;2023-05-10T01:44:52;101735.56;;;4.78;70.42
70323;BME280;57735;56.264;43.898;2023-05-10T01:50:04;101737.59;;;4.88;69.87
70323;BME280;57735;56.264;43.898;2023-05-10T01:52:41;101736.25;;;4.97;69.78
70323;BME280;57735;56.264;43.898;2023-05-10T01:55:15;101733.38;;;5.02;69.70
70323;BME280;57735;56.264;43.898;2023-05-10T01:57:52;101736.66;;;5.05;69.57
70323;BME280;57735;56.264;43.898;2023-05-10T02:00:23;101726.69;;;5.10;69.47
70323;BME280;57735;56.264;43.898;2023-05-10T02:02:55;101729.00;;;5.16;69.24
70323;BME280;57735;56.264;43.898;2023-05-10T02:05:27;101738.44;;;5.20;69.19
70323;BME280;57735;56.264;43.898;2023-05-10T02:08:03;101737.28;;;5.26;69.50
70323;BME280;57735;56.264;43.898;2023-05-10T02:10:36;101737.88;;;5.31;69.34
70323;BME280;57735;56.264;43.898;2023-05-10T02:13:09;101749.13;;;5.35;68.93
70323;BME280;57735;56.264;43.898;2023-05-10T02:15:42;101731.97;;;5.42;68.42
70323;BME280;57735;56.264;43.898;2023-05-10T02:18:14;101734.94;;;5.51;68.34
70323;BME280;57735;56.264;43.898;2023-05-10T02:20:46;101729.19;;;5.59;68.33
70323;BME280;57735;56.264;43.898;2023-05-10T02:23:17;101730.66;;;5.65;68.30
70323;BME280;57735;56.264;43.898;2023-05-10T02:25:52;101732.06;;;5.70;68.05
70323;BME280;57735;56.264;43.898;2023-05-10T02:28:25;101729.94;;;5.77;67.84
70323;BME280;57735;56.264;43.898;2023-05-10T02:30:57;101731.09;;;5.87;67.49
70323;BME280;57735;56.264;43.898;2023-05-10T02:33:28;101722.75;;;5.94;67.00
70323;BME280;57735;56.264;43.898;2023-05-10T02:36:01;101719.53;;;6.04;66.95
70323;BME280;57735;56.264;43.898;2023-05-10T02:38:33;101728.06;;;6.09;67.13
70323;BME280;57735;56.264;43.898;2023-05-10T02:41:05;101724.09;;;6.16;67.10
70323;BME280;57735;56.264;43.898;2023-05-10T02:43:39;101718.34;;;6.23;66.89
70323;BME280;57735;56.264;43.898;2023-05-10T02:46:11;101709.19;;;6.29;66.78
70323;BME280;57735;56.264;43.898;2023-05-10T02:48:41;101710.53;;;6.36;66.62
70323;BME280;57735;56.264;43.898;2023-05-10T02:51:15;101709.00;;;6.46;66.17
70323;BME280;57735;56.264;43.898;2023-05-10T02:53:49;101711.81;;;6.57;65.91
70323;BME280;57735;56.264;43.898;2023-05-10T02:56:28;101712.13;;;6.67;65.73
70323;BME280;57735;56.264;43.898;2023-05-10T02:59:05;101712.38;;;6.77;63.91
70323;BME280;57735;56.264;43.898;2023-05-10T03:01:36;101706.19;;;6.90;63.50
70323;BME280;57735;56.264;43.898;2023-05-10T03:04:09;101709.03;;;7.02;62.81
70323;BME280;57735;56.264;43.898;2023-05-10T03:06:40;101708.34;;;7.12;61.07
70323;BME280;57735;56.264;43.898;2023-05-10T03:09:12;101712.00;;;7.24;59.92
70323;BME280;57735;56.264;43.898;2023-05-10T03:17:42;101709.28;;;7.65;58.83
70323;BME280;57735;56.264;43.898;2023-05-10T03:20:24;101701.44;;;7.76;57.34
70323;BME280;57735;56.264;43.898;2023-05-10T03:23:04;101702.31;;;7.89;56.55
70323;BME280;57735;56.264;43.898;2023-05-10T03:25:35;101708.50;;;8.02;56.44
70323;BME280;57735;56.264;43.898;2023-05-10T03:28:08;101704.16;;;8.14;56.48
70323;BME280;57735;56.264;43.898;2023-05-10T03:30:41;101703.41;;;8.25;55.60
70323;BME280;57735;56.264;43.898;2023-05-10T03:33:12;101703.78;;;8.33;53.37
70323;BME280;57735;56.264;43.898;2023-05-10T03:35:43;101709.16;;;8.44;53.29
70323;BME280;57735;56.264;43.898;2023-05-10T03:38:16;101708.53;;;8.53;51.08
70323;BME280;57735;56.264;43.898;2023-05-10T03:40:47;101691.09;;;8.62;50.44
70323;BME280;57735;56.264;43.898;2023-05-10T03:43:17;101689.59;;;8.70;49.67
70323;BME280;57735;56.264;43.898;2023-05-10T03:45:48;101694.34;;;8.78;49.56
70323;BME280;57735;56.264;43.898;2023-05-10T03:48:19;101703.50;;;8.87;49.57
70323;BME280;57735;56.264;43.898;2023-05-10T03:50:50;101701.00;;;8.96;49.16
70323;BME280;57735;56.264;43.898;2023-05-10T03:53:23;101703.22;;;9.02;48.56
70323;BME280;57735;56.264;43.898;2023-05-10T03:55:53;101694.25;;;9.16;48.38
70323;BME280;57735;56.264;43.898;2023-05-10T03:58:24;101702.56;;;9.35;47.80
70323;BME280;57735;56.264;43.898;2023-05-10T04:00:55;101695.47;;;9.47;46.56
70323;BME280;57735;56.264;43.898;2023-05-10T04:03:26;101698.06;;;9.60;46.42
70323;BME280;57735;56.264;43.898;2023-05-10T04:06:00;101694.00;;;9.67;45.89
70323;BME280;57735;56.264;43.898;2023-05-10T04:08:32;101693.78;;;9.81;45.17
70323;BME280;57735;56.264;43.898;2023-05-10T04:11:07;101694.56;;;9.94;44.60
70323;BME280;57735;56.264;43.898;2023-05-10T04:13:38;101685.38;;;9.98;43.89
70323;BME280;57735;56.264;43.898;2023-05-10T04:16:09;101688.03;;;10.09;43.89
70323;BME280;57735;56.264;43.898;2023-05-10T04:18:40;101680.31;;;10.18;42.42
70323;BME280;57735;56.264;43.898;2023-05-10T04:21:13;101691.75;;;10.31;42.38
70323;BME280;57735;56.264;43.898;2023-05-10T04:23:44;101688.97;;;10.43;42.64
70323;BME280;57735;56.264;43.898;2023-05-10T04:26:15;101682.31;;;10.60;42.76
70323;BME280;57735;56.264;43.898;2023-05-10T04:28:48;101685.31;;;10.78;42.24
70323;BME280;57735;56.264;43.898;2023-05-10T04:31:19;101687.34;;;10.97;42.10
70323;BME280;57735;56.264;43.898;2023-05-10T04:33:50;101680.84;;;11.33;41.38
70323;BME280;57735;56.264;43.898;2023-05-10T04:36:20;101683.72;;;11.41;39.41
70323;BME280;57735;56.264;43.898;2023-05-10T04:38:51;101690.84;;;11.51;38.97
70323;BME280;57735;56.264;43.898;2023-05-10T04:41:22;101695.22;;;11.73;39.38
70323;BME280;57735;56.264;43.898;2023-05-10T04:43:56;101683.56;;;11.85;38.26
70323;BME280;57735;56.264;43.898;2023-05-10T04:46:26;101688.94;;;11.95;37.78
70323;BME280;57735;56.264;43.898;2023-05-10T04:48:57;101678.91;;;12.08;37.28
70323;BME280;57735;56.264;43.898;2023-05-10T04:51:28;101686.88;;;12.19;36.82
70323;BME280;57735;56.264;43.898;2023-05-10T04:53:59;101680.84;;;12.27;36.24
70323;BME280;57735;56.264;43.898;2023-05-10T04:56:29;101677.53;;;12.35;35.90
70323;BME280;57735;56.264;43.898;2023-05-10T04:59:00;101670.63;;;12.42;36.09
70323;BME280;57735;56.264;43.898;2023-05-10T05:01:31;101672.91;;;12.46;36.36
70323;BME280;57735;56.264;43.898;2023-05-10T05:04:01;101674.22;;;12.52;35.01
70323;BME280;57735;56.264;43.898;2023-05-10T05:06:35;101673.09;;;12.54;34.76
70323;BME280;57735;56.264;43.898;2023-05-10T05:09:05;101665.94;;;12.55;33.36
70323;BME280;57735;56.264;43.898;2023-05-10T05:11:38;101665.63;;;12.58;33.32
70323;BME280;57735;56.264;43.898;2023-05-10T05:14:10;101666.34;;;12.60;33.25
70323;BME280;57735;56.264;43.898;2023-05-10T05:16:44;101659.09;;;12.72;33.32
70323;BME280;57735;56.264;43.898;2023-05-10T05:19:14;101661.25;;;12.87;33.12
70323;BME280;57735;56.264;43.898;2023-05-10T05:21:45;101662.38;;;12.94;32.37
70323;BME280;57735;56.264;43.898;2023-05-10T05:24:16;101657.31;;;13.01;32.49
70323;BME280;57735;56.264;43.898;2023-05-10T05:26:49;101653.34;;;12.96;32.41
70323;BME280;57735;56.264;43.898;2023-05-10T05:29:20;101648.00;;;12.96;31.92
70323;BME280;57735;56.264;43.898;2023-05-10T05:31:51;101657.16;;;12.93;31.96
70323;BME280;57735;56.264;43.898;2023-05-10T05:34:21;101651.94;;;12.91;33.08
70323;BME280;57735;56.264;43.898;2023-05-10T05:36:52;101649.56;;;12.88;32.90
70323;BME280;57735;56.264;43.898;2023-05-10T05:39:25;101652.38;;;12.97;33.22
70323;BME280;57735;56.264;43.898;2023-05-10T05:41:58;101648.84;;;12.96;33.22
70323;BME280;57735;56.264;43.898;2023-05-10T05:44:29;101639.53;;;12.90;33.58
70323;BME280;57735;56.264;43.898;2023-05-10T05:47:00;101637.56;;;12.92;33.64
70323;BME280;57735;56.264;43.898;2023-05-10T05:49:33;101648.31;;;13.12;32.75
70323;BME280;57735;56.264;43.898;2023-05-10T05:52:04;101631.59;;;13.29;32.07
70323;BME280;57735;56.264;43.898;2023-05-10T05:54:35;101633.84;;;13.43;32.35
70323;BME280;57735;56.264;43.898;2023-05-10T05:57:05;101630.88;;;13.46;31.69
70323;BME280;57735;56.264;43.898;2023-05-10T05:59:36;101631.19;;;13.53;31.50
70323;BME280;57735;56.264;43.898;2023-05-10T06:02:12;101628.63;;;13.61;31.51
70323;BME280;57735;56.264;43.898;2023-05-10T06:04:42;101628.06;;;13.67;31.81
70323;BME280;57735;56.264;43.898;2023-05-10T06:07:16;101623.53;;;13.68;31.55
70323;BME280;57735;56.264;43.898;2023-05-10T06:09:51;101621.28;;;13.73;31.44
70323;BME280;57735;56.264;43.898;2023-05-10T06:12:22;101622.66;;;13.77;31.57
70323;BME280;57735;56.264;43.898;2023-05-10T06:14:53;101619.41;;;13.83;31.68
70323;BME280;57735;56.264;43.898;2023-05-10T06:17:24;101628.44;;;13.82;31.30
70323;BME280;57735;56.264;43.898;2023-05-10T06:19:57;101612.09;;;13.75;31.27
70323;BME280;57735;56.264;43.898;2023-05-10T06:22:28;101613.78;;;13.76;29.99
70323;BME280;57735;56.264;43.898;2023-05-10T06:24:59;101618.44;;;13.74;29.98
70323;BME280;57735;56.264;43.898;2023-05-10T06:27:30;101611.94;;;13.77;29.81
70323;BME280;57735;56.264;43.898;2023-05-10T06:30:01;101609.25;;;13.86;30.15
70323;BME280;57735;56.264;43.898;2023-05-10T06:32:34;101607.94;;;14.00;30.07
70323;BME280;57735;56.264;43.898;2023-05-10T06:35:06;101605.94;;;14.12;28.55
70323;BME280;57735;56.264;43.898;2023-05-10T06:37:36;101598.59;;;14.14;27.93
70323;BME280;57735;56.264;43.898;2023-05-10T06:40:07;101599.56;;;14.22;28.16
70323;BME280;57735;56.264;43.898;2023-05-10T06:42:39;101591.19;;;14.25;27.26
70323;BME280;57735;56.264;43.898;2023-05-10T06:45:10;101595.13;;;14.31;27.68
70323;BME280;57735;56.264;43.898;2023-05-10T06:47:41;101592.00;;;14.36;27.49
70323;BME280;57735;56.264;43.898;2023-05-10T06:50:12;101593.25;;;14.41;27.26
70323;BME280;57735;56.264;43.898;2023-05-10T06:52:43;101587.16;;;14.49;27.46
70323;BME280;57735;56.264;43.898;2023-05-10T06:55:13;101587.56;;;14.54;27.53
70323;BME280;57735;56.264;43.898;2023-05-10T06:57:44;101583.19;;;14.53;26.77
70323;BME280;57735;56.264;43.898;2023-05-10T07:00:16;101581.28;;;14.63;26.76
70323;BME280;57735;56.264;43.898;2023-05-10T07:02:47;101586.28;;;14.76;26.76
70323;BME280;57735;56.264;43.898;2023-05-10T07:05:18;101578.75;;;14.89;27.01
70323;BME280;57735;56.264;43.898;2023-05-10T07:07:49;101577.06;;;15.06;25.83
70323;BME280;57735;56.264;43.898;2023-05-10T07:10:20;101585.13;;;15.06;25.73
70323;BME280;57735;56.264;43.898;2023-05-10T07:12:51;101578.09;;;14.95;26.11
70323;BME280;57735;56.264;43.898;2023-05-10T07:15:24;101590.00;;;14.92;25.37
70323;BME280;57735;56.264;43.898;2023-05-10T07:17:55;101588.63;;;14.88;26.16
70323;BME280;57735;56.264;43.898;2023-05-10T07:20:28;101591.84;;;14.92;26.27
70323;BME280;57735;56.264;43.898;2023-05-10T07:22:59;101579.59;;;14.89;25.78
70323;BME280;57735;56.264;43.898;2023-05-10T07:25:29;101578.75;;;14.89;25.43
70323;BME280;57735;56.264;43.898;2023-05-10T07:28:00;101576.41;;;14.94;25.40
70323;BME280;57735;56.264;43.898;2023-05-10T07:30:34;101564.28;;;15.25;25.76
70323;BME280;57735;56.264;43.898;2023-05-10T07:33:05;101562.66;;;15.50;24.81
70323;BME280;57735;56.264;43.898;2023-05-10T07:35:36;101566.06;;;15.78;24.55
70323;BME280;57735;56.264;43.898;2023-05-10T07:38:06;101573.13;;;16.05;24.38
70323;BME280;57735;56.264;43.898;2023-05-10T07:40:38;101567.34;;;15.92;24.10
70323;BME280;57735;56.264;43.898;2023-05-10T07:43:09;101559.75;;;15.87;23.22
70323;BME280;57735;56.264;43.898;2023-05-10T07:45:40;101561.69;;;16.03;24.20
70323;BME280;57735;56.264;43.898;2023-05-10T07:48:13;101557.69;;;16.15;23.69
70323;BME280;57735;56.264;43.898;2023-05-10T07:50:44;101557.31;;;16.10;23.28
70323;BME280;57735;56.264;43.898;2023-05-10T07:53:18;101550.78;;;16.13;23.31
70323;BME280;57735;56.264;43.898;2023-05-10T07:55:58;101550.34;;;16.25;23.22
70323;BME280;57735;56.264;43.898;2023-05-10T07:58:28;101553.13;;;16.42;23.22
70323;BME280;57735;56.264;43.898;2023-05-10T08:01:01;101543.41;;;16.57;23.43
70323;BME280;57735;56.264;43.898;2023-05-10T08:03:32;101547.56;;;16.51;23.25
70323;BME280;57735;56.264;43.898;2023-05-10T08:06:03;101545.94;;;16.16;23.62
70323;BME280;57735;56.264;43.898;2023-05-10T08:08:34;101542.31;;;15.99;23.56
70323;BME280;57735;56.264;43.898;2023-05-10T08:11:05;101545.19;;;15.72;23.48
70323;BME280;57735;56.264;43.898;2023-05-10T08:13:36;101536.38;;;15.44;23.77
70323;BME280;57735;56.264;43.898;2023-05-10T08:16:09;101541.28;;;15.23;24.40
70323;BME280;57735;56.264;43.898;2023-05-10T08:18:40;101558.25;;;15.06;24.20
70323;BME280;57735;56.264;43.898;2023-05-10T08:21:10;101536.91;;;14.86;24.54
70323;BME280;57735;56.264;43.898;2023-05-10T08:23:42;101539.81;;;14.75;24.77
70323;BME280;57735;56.264;43.898;2023-05-10T08:26:14;101539.66;;;14.77;24.93
70323;BME280;57735;56.264;43.898;2023-05-10T08:28:44;101546.97;;;14.84;24.23
70323;BME280;57735;56.264;43.898;2023-05-10T08:31:18;101537.25;;;15.27;23.51
70323;BME280;57735;56.264;43.898;2023-05-10T08:33:49;101535.31;;;15.55;23.65
70323;BME280;57735;56.264;43.898;2023-05-10T08:36:21;101531.78;;;15.80;23.33
70323;BME280;57735;56.264;43.898;2023-05-10T08:38:54;101526.50;;;15.96;23.11
70323;BME280;57735;56.264;43.898;2023-05-10T08:41:25;101525.41;;;16.15;23.24
70323;BME280;57735;56.264;43.898;2023-05-10T08:43:56;101524.09;;;16.19;23.37
70323;BME280;57735;56.264;43.898;2023-05-10T08:46:27;101523.63;;;16.24;22.97
70323;BME280;57735;56.264;43.898;2023-05-10T08:48:59;101515.38;;;16.25;22.92
70323;BME280;57735;56.264;43.898;2023-05-10T08:51:38;101517.72;;;16.20;22.35
70323;BME280;57735;56.264;43.898;2023-05-10T08:54:10;101506.78;;;16.30;23.22
70323;BME280;57735;56.264;43.898;2023-05-10T08:56:41;101510.91;;;16.42;22.53
70323;BME280;57735;56.264;43.898;2023-05-10T08:59:19;101507.03;;;16.53;22.17
70323;BME280;57735;56.264;43.898;2023-05-10T09:01:52;101516.56;;;16.31;22.51
70323;BME280;57735;56.264;43.898;2023-05-10T09:04:24;101520.50;;;16.02;23.00
70323;BME280;57735;56.264;43.898;2023-05-10T09:06:55;101496.66;;;15.74;23.11
70323;BME280;57735;56.264;43.898;2023-05-10T09:09:27;101499.16;;;15.49;23.37
70323;BME280;57735;56.264;43.898;2023-05-10T09:11:58;101501.88;;;15.31;23.68
70323;BME280;57735;56.264;43.898;2023-05-10T09:14:29;101498.50;;;15.29;23.84
70323;BME280;57735;56.264;43.898;2023-05-10T09:17:04;101500.06;;;15.14;23.50
70323;BME280;57735;56.264;43.898;2023-05-10T09:19:35;101490.44;;;15.29;23.75
70323;BME280;57735;56.264;43.898;2023-05-10T09:22:06;101489.94;;;15.52;23.54
70323;BME280;57735;56.264;43.898;2023-05-10T09:24:36;101486.81;;;15.90;24.09
70323;BME280;57735;56.264;43.898;2023-05-10T09:27:12;101474.13;;;16.17;22.94
70323;BME280;57735;56.264;43.898;2023-05-10T09:29:43;101480.09;;;16.36;22.65
70323;BME280;57735;56.264;43.898;2023-05-10T09:32:14;101469.50;;;16.59;22.74
70323;BME280;57735;56.264;43.898;2023-05-10T09:34:45;101470.94;;;16.71;22.69
70323;BME280;57735;56.264;43.898;2023-05-10T09:37:16;101464.38;;;16.74;22.15
70323;BME280;57735;56.264;43.898;2023-05-10T09:39:47;101465.69;;;16.78;21.87
70323;BME280;57735;56.264;43.898;2023-05-10T09:42:19;101455.94;;;16.93;22.45
70323;BME280;57735;56.264;43.898;2023-05-10T09:44:50;101471.38;;;16.51;22.33
70323;BME280;57735;56.264;43.898;2023-05-10T09:47:21;101459.53;;;16.19;22.81
70323;BME280;57735;56.264;43.898;2023-05-10T09:49:52;101451.50;;;15.93;23.01
70323;BME280;57735;56.264;43.898;2023-05-10T09:52:23;101461.84;;;15.72;23.50
70323;BME280;57735;56.264;43.898;2023-05-10T09:54:54;101454.56;;;15.56;23.76
70323;BME280;57735;56.264;43.898;2023-05-10T09:57:25;101457.16;;;15.48;23.82
70323;BME280;57735;56.264;43.898;2023-05-10T09:59:56;101445.97;;;15.87;23.28
70323;BME280;57735;56.264;43.898;2023-05-10T10:02:31;101445.34;;;16.09;22.96
70323;BME280;57735;56.264;43.898;2023-05-10T10:05:02;101439.69;;;16.28;22.76
70323;BME280;57735;56.264;43.898;2023-05-10T10:07:34;101437.72;;;16.47;22.67
70323;BME280;57735;56.264;43.898;2023-05-10T10:10:07;101420.88;;;16.61;22.59
70323;BME280;57735;56.264;43.898;2023-05-10T10:12:41;101427.84;;;16.71;22.13
70323;BME280;57735;56.264;43.898;2023-05-10T10:15:13;101427.00;;;16.79;22.49
70323;BME280;57735;56.264;43.898;2023-05-10T10:17:44;101425.47;;;16.85;22.20
70323;BME280;57735;56.264;43.898;2023-05-10T10:20:16;101418.72;;;16.97;22.24
70323;BME280;57735;56.264;43.898;2023-05-10T10:22:48;101415.50;;;17.09;23.02
70323;BME280;57735;56.264;43.898;2023-05-10T10:25:20;101422.94;;;17.16;22.08
70323;BME280;57735;56.264;43.898;2023-05-10T10:30:40;101417.19;;;16.46;22.75
70323;BME280;57735;56.264;43.898;2023-05-10T10:35:45;101408.28;;;16.61;23.32
70323;BME280;57735;56.264;43.898;2023-05-10T10:38:16;101412.84;;;16.77;22.61
70323;BME280;57735;56.264;43.898;2023-05-10T10:40:47;101407.09;;;16.48;22.52
70323;BME280;57735;56.264;43.898;2023-05-10T10:43:26;101404.03;;;16.18;22.72
70323;BME280;57735;56.264;43.898;2023-05-10T10:46:16;101407.94;;;16.48;23.25
70323;BME280;57735;56.264;43.898;2023-05-10T10:55:00;101393.28;;;17.24;22.41
70323;BME280;57735;56.264;43.898;2023-05-10T10:57:48;101391.00;;;17.43;21.88
70323;BME280;57735;56.264;43.898;2023-05-10T11:03:03;101384.19;;;17.17;22.08
70323;BME280;57735;56.264;43.898;2023-05-10T11:05:49;101387.50;;;17.35;21.79
70323;BME280;57735;56.264;43.898;2023-05-10T11:08:32;101382.91;;;17.43;21.98
70323;BME280;57735;56.264;43.898;2023-05-10T11:11:05;101388.97;;;17.54;21.97
70323;BME280;57735;56.264;43.898;2023-05-10T11:13:43;101377.97;;;17.63;22.03
70323;BME280;57735;56.264;43.898;2023-05-10T11:19:04;101362.75;;;17.78;21.10
70323;BME280;57735;56.264;43.898;2023-05-10T11:24:36;101358.44;;;18.00;22.05
70323;BME280;57735;56.264;43.898;2023-05-10T11:27:07;101356.31;;;18.10;22.34
70323;BME280;57735;56.264;43.898;2023-05-10T11:29:38;101352.69;;;18.26;22.74
70323;BME280;57735;56.264;43.898;2023-05-10T11:32:21;101349.72;;;18.13;22.03
70323;BME280;57735;56.264;43.898;2023-05-10T11:35:11;101356.56;;;17.70;22.21
70323;BME280;57735;56.264;43.898;2023-05-10T11:37:42;101342.50;;;17.43;22.19
70323;BME280;57735;56.264;43.898;2023-05-10T11:40:14;101344.34;;;17.43;22.03
70323;BME280;57735;56.264;43.898;2023-05-10T11:42:45;101340.56;;;17.68;21.89
70323;BME280;57735;56.264;43.898;2023-05-10T11:45:18;101324.44;;;17.91;21.57
70323;BME280;57735;56.264;43.898;2023-05-10T11:47:49;101331.28;;;18.02;21.78
70323;BME280;57735;56.264;43.898;2023-05-10T11:50:20;101337.75;;;18.16;21.43
70323;BME280;57735;56.264;43.898;2023-05-10T11:52:55;101318.84;;;18.16;21.02
70323;BME280;57735;56.264;43.898;2023-05-10T11:55:28;101321.91;;;18.35;22.19
70323;BME280;57735;56.264;43.898;2023-05-10T11:58:01;101316.66;;;18.57;21.46
70323;BME280;57735;56.264;43.898;2023-05-10T12:00:33;101314.50;;;18.75;21.47
70323;BME280;57735;56.264;43.898;2023-05-10T12:03:04;101324.69;;;19.02;22.05
70323;BME280;57735;56.264;43.898;2023-05-10T12:05:36;101319.38;;;19.24;21.93
70323;BME280;57735;56.264;43.898;2023-05-10T12:08:11;101317.88;;;19.50;21.21
70323;BME280;57735;56.264;43.898;2023-05-10T12:10:45;101321.94;;;19.61;21.25
70323;BME280;57735;56.264;43.898;2023-05-10T12:13:17;101313.81;;;19.46;20.91
70323;BME280;57735;56.264;43.898;2023-05-10T12:15:48;101312.09;;;19.09;21.13
70323;BME280;57735;56.264;43.898;2023-05-10T12:18:23;101315.78;;;18.79;21.66
70323;BME280;57735;56.264;43.898;2023-05-10T12:21:03;101309.78;;;18.92;21.12
70323;BME280;57735;56.264;43.898;2023-05-10T12:23:34;101309.25;;;19.76;20.61
70323;BME280;57735;56.264;43.898;2023-05-10T12:26:10;101308.72;;;20.30;20.12
70323;BME280;57735;56.264;43.898;2023-05-10T12:28:41;101303.63;;;20.63;19.21
70323;BME280;57735;56.264;43.898;2023-05-10T12:31:12;101309.91;;;20.98;19.25
70323;BME280;57735;56.264;43.898;2023-05-10T12:33:44;101296.16;;;21.34;18.96
70323;BME280;57735;56.264;43.898;2023-05-10T12:36:16;101295.75;;;21.91;18.92
70323;BME280;57735;56.264;43.898;2023-05-10T12:38:48;101296.47;;;22.53;19.04
70323;BME280;57735;56.264;43.898;2023-05-10T12:41:19;101296.22;;;23.07;17.42
70323;BME280;57735;56.264;43.898;2023-05-10T12:43:51;101296.47;;;23.57;16.97
70323;BME280;57735;56.264;43.898;2023-05-10T12:46:21;101291.50;;;23.85;17.33
70323;BME280;57735;56.264;43.898;2023-05-10T12:48:55;101283.50;;;24.22;17.01
70323;BME280;57735;56.264;43.898;2023-05-10T12:51:28;101287.59;;;24.62;16.53
70323;BME280;57735;56.264;43.898;2023-05-10T12:53:59;101283.53;;;24.90;16.14
70323;BME280;57735;56.264;43.898;2023-05-10T12:56:33;101289.19;;;24.95;15.82
70323;BME280;57735;56.264;43.898;2023-05-10T12:59:04;101288.13;;;25.14;15.76
70323;BME280;57735;56.264;43.898;2023-05-10T13:01:37;101282.63;;;25.51;15.66
70323;BME280;57735;56.264;43.898;2023-05-10T13:04:08;101280.94;;;25.98;15.89
70323;BME280;57735;56.264;43.898;2023-05-10T13:06:39;101274.09;;;26.07;15.58
70323;BME280;57735;56.264;43.898;2023-05-10T13:09:10;101282.75;;;23.25;17.06
70323;BME280;57735;56.264;43.898;2023-05-10T13:11:43;101279.72;;;24.73;16.12
70323;BME280;57735;56.264;43.898;2023-05-10T13:14:14;101275.16;;;25.46;15.52
70323;BME280;57735;56.264;43.898;2023-05-10T13:16:45;101276.59;;;25.97;15.21
70323;BME280;57735;56.264;43.898;2023-05-10T13:19:16;101273.47;;;26.35;14.80
70323;BME280;57735;56.264;43.898;2023-05-10T13:21:47;101271.34;;;26.72;14.50
70323;BME280;57735;56.264;43.898;2023-05-10T13:24:19;101272.53;;;26.64;14.90
70323;BME280;57735;56.264;43.898;2023-05-10T13:26:49;101278.13;;;26.81;14.72
70323;BME280;57735;56.264;43.898;2023-05-10T13:29:20;101266.81;;;27.01;14.31
70323;BME280;57735;56.264;43.898;2023-05-10T13:31:52;101276.06;;;27.23;14.13
70323;BME280;57735;56.264;43.898;2023-05-10T13:34:23;101274.19;;;27.52;13.88
70323;BME280;57735;56.264;43.898;2023-05-10T13:36:54;101273.22;;;27.87;13.88
70323;BME280;57735;56.264;43.898;2023-05-10T13:39:26;101273.09;;;27.25;14.14
70323;BME280;57735;56.264;43.898;2023-05-10T13:41:57;101276.91;;;27.92;13.68